createdAt,value
2018-10-06T00:00:20.938Z,101354.19
2018-10-06T00:02:49.907Z,101355.20
2018-10-06T00:05:18.941Z,101348.06
2018-10-06T00:07:48.373Z,101351.80
2018-10-06T00:10:17.320Z,101352.48
2018-10-06T00:12:46.223Z,101351.79
2018-10-06T00:15:15.139Z,101345.44
2018-10-06T00:17:43.944Z,101340.88
2018-10-06T00:20:12.883Z,101333.84
2018-10-06T00:22:41.719Z,101334.50
2018-10-06T00:25:10.598Z,101334.91
2018-10-06T00:27:39.453Z,101330.36
2018-10-06T00:30:08.455Z,101330.69
2018-10-06T00:32:37.343Z,101333.88
2018-10-06T00:35:06.307Z,101333.11
2018-10-06T00:37:35.130Z,101337.30
2018-10-06T00:40:04.127Z,101330.92
2018-10-06T00:42:32.981Z,101331.61
2018-10-06T00:45:08.049Z,101330.93
2018-10-06T00:47:36.891Z,101325.84
2018-10-06T00:50:05.807Z,101329.54
2018-10-06T00:52:34.627Z,101326.81
2018-10-06T00:55:03.617Z,101325.80
2018-10-06T00:57:32.441Z,101319.66
2018-10-06T01:00:01.423Z,101317.41
2018-10-06T01:02:30.325Z,101320.66
2018-10-06T01:04:59.162Z,101313.79
2018-10-06T01:07:28.153Z,101308.93
2018-10-06T01:09:58.085Z,101306.20
2018-10-06T01:12:27.509Z,101309.02
2018-10-06T01:14:56.403Z,101305.19
2018-10-06T01:17:25.331Z,101298.00
2018-10-06T01:19:54.236Z,101295.06
2018-10-06T01:22:23.143Z,101292.78
2018-10-06T01:24:52.012Z,101289.80
2018-10-06T01:27:20.935Z,101289.71
2018-10-06T01:29:49.774Z,101288.94
2018-10-06T01:32:18.654Z,101298.47
2018-10-06T01:34:47.480Z,101290.48
2018-10-06T01:37:16.383Z,101285.69
2018-10-06T01:39:45.279Z,101289.59
2018-10-06T01:42:14.164Z,101290.23
2018-10-06T01:44:43.089Z,101284.95
2018-10-06T01:47:12.015Z,101280.18
2018-10-06T01:49:40.853Z,101279.81
2018-10-06T01:52:09.741Z,101278.73
2018-10-06T01:54:38.602Z,101272.84
2018-10-06T01:57:07.873Z,101274.80
2018-10-06T01:59:36.719Z,101265.15
2018-10-06T02:02:05.811Z,101263.44
2018-10-06T02:04:34.699Z,101262.21
2018-10-06T02:07:03.532Z,101257.88
2018-10-06T02:09:32.469Z,101264.80
2018-10-06T02:12:01.380Z,101256.52
2018-10-06T02:14:30.272Z,101249.72
2018-10-06T02:16:59.085Z,101254.94
2018-10-06T02:19:28.945Z,101250.02
2018-10-06T02:21:57.890Z,101243.93
2018-10-06T02:24:26.718Z,101240.50
2018-10-06T02:26:55.538Z,101246.95
2018-10-06T02:29:24.356Z,101236.71
2018-10-06T02:31:53.213Z,101236.71
2018-10-06T02:34:22.434Z,101231.31
2018-10-06T02:36:51.357Z,101235.52
2018-10-06T02:39:20.170Z,101228.25
2018-10-06T02:41:48.989Z,101233.56
2018-10-06T02:44:17.860Z,101222.67
2018-10-06T02:46:46.789Z,101220.13
2018-10-06T02:49:15.665Z,101221.66
2018-10-06T02:51:44.460Z,101221.21
2018-10-06T02:54:13.376Z,101216.09
2018-10-06T02:56:42.273Z,101223.39
2018-10-06T02:59:11.439Z,101218.76
2018-10-06T03:01:40.332Z,101215.92
2018-10-06T03:04:09.179Z,101211.16
2018-10-06T03:06:38.031Z,101218.59
2018-10-06T03:09:08.283Z,101212.77
2018-10-06T03:11:37.281Z,101212.08
2018-10-06T03:14:06.347Z,101212.08
2018-10-06T03:16:35.242Z,101214.84
2018-10-06T03:19:04.078Z,101221.59
2018-10-06T03:21:32.922Z,101217.45
2018-10-06T03:24:01.806Z,101211.74
2018-10-06T03:26:30.670Z,101205.84
2018-10-06T03:28:59.469Z,101194.41
2018-10-06T03:31:28.364Z,101192.69
2018-10-06T03:33:57.175Z,101198.86
2018-10-06T03:36:26.096Z,101193.29
2018-10-06T03:38:54.951Z,101196.32
2018-10-06T03:41:23.849Z,101184.95
2018-10-06T03:43:52.661Z,101186.66
2018-10-06T03:46:21.625Z,101185.69
2018-10-06T03:48:50.524Z,101194.88
2018-10-06T03:51:19.424Z,101194.20
2018-10-06T03:53:48.305Z,101200.36
2018-10-06T03:56:17.220Z,101195.16
2018-10-06T03:58:46.092Z,101195.70
2018-10-06T04:01:15.007Z,101188.56
2018-10-06T04:03:43.894Z,101189.57
2018-10-06T04:06:12.716Z,101199.30
2018-10-06T04:08:41.592Z,101198.97
2018-10-06T04:11:10.462Z,101197.61
2018-10-06T04:13:41.280Z,101204.20
2018-10-06T04:16:10.416Z,101197.72
2018-10-06T04:18:39.573Z,101192.23
2018-10-06T04:21:08.456Z,101184.44
2018-10-06T04:23:37.336Z,101188.98
2018-10-06T04:26:06.702Z,101187.02
2018-10-06T04:28:35.644Z,101177.91
2018-10-06T04:31:04.527Z,101176.29
2018-10-06T04:33:33.441Z,101174.05
2018-10-06T04:36:02.298Z,101176.14
2018-10-06T04:38:31.436Z,101171.56
2018-10-06T04:41:00.416Z,101170.41
2018-10-06T04:43:35.392Z,101162.87
2018-10-06T04:46:04.246Z,101164.17
2018-10-06T04:48:33.144Z,101160.80
2018-10-06T04:51:02.011Z,101162.77
2018-10-06T04:53:31.127Z,101170.58
2018-10-06T04:56:00.198Z,101166.34
2018-10-06T04:58:29.108Z,101167.49
2018-10-06T05:00:57.982Z,101165.66
2018-10-06T05:03:26.800Z,101168.11
2018-10-06T05:05:55.688Z,101162.75
2018-10-06T05:08:24.528Z,101154.89
2018-10-06T05:10:53.393Z,101158.41
2018-10-06T05:13:22.442Z,101162.56
2018-10-06T05:15:51.319Z,101166.92
2018-10-06T05:18:20.136Z,101158.47
2018-10-06T05:20:48.959Z,101157.89
2018-10-06T05:23:17.843Z,101160.74
2018-10-06T05:25:46.807Z,101151.84
2018-10-06T05:28:15.838Z,101155.84
2018-10-06T05:30:44.699Z,101156.11
2018-10-06T05:33:13.575Z,101149.11
2018-10-06T05:35:42.431Z,101150.27
2018-10-06T05:38:11.457Z,101144.42
2018-10-06T05:40:41.100Z,101139.13
2018-10-06T05:43:09.977Z,101140.77
2018-10-06T05:45:38.877Z,101143.34
2018-10-06T05:48:07.720Z,101133.92
2018-10-06T05:50:36.727Z,101140.84
2018-10-06T05:53:05.641Z,101139.64
2018-10-06T05:55:34.525Z,101136.89
2018-10-06T05:58:03.354Z,101133.56
2018-10-06T06:00:32.347Z,101133.84
2018-10-06T06:03:01.283Z,101132.75
2018-10-06T06:05:30.161Z,101126.95
2018-10-06T06:07:59.031Z,101133.92
2018-10-06T06:10:27.868Z,101134.55
2018-10-06T06:12:56.768Z,101134.33
2018-10-06T06:15:25.739Z,101136.05
2018-10-06T06:17:54.589Z,101129.19
2018-10-06T06:20:23.457Z,101123.71
2018-10-06T06:22:52.655Z,101119.37
2018-10-06T06:25:21.484Z,101124.00
2018-10-06T06:27:50.405Z,101123.84
2018-10-06T06:30:19.280Z,101122.86
2018-10-06T06:32:48.163Z,101122.71
2018-10-06T06:35:17.034Z,101125.39
2018-10-06T06:37:45.977Z,101130.89
2018-10-06T06:40:14.871Z,101131.02
2018-10-06T06:42:43.798Z,101130.59
2018-10-06T06:45:13.531Z,101136.55
2018-10-06T06:47:42.393Z,101136.64
2018-10-06T06:50:11.240Z,101131.30
2018-10-06T06:52:40.231Z,101131.15
2018-10-06T06:55:09.075Z,101127.77
2018-10-06T06:57:38.220Z,101133.77
2018-10-06T07:00:07.271Z,101129.81
2018-10-06T07:02:36.110Z,101132.47
2018-10-06T07:05:05.149Z,101125.33
2018-10-06T07:07:34.103Z,101132.36
2018-10-06T07:10:03.013Z,101124.97
2018-10-06T07:12:31.984Z,101129.75
2018-10-06T07:15:00.856Z,101121.92
2018-10-06T07:17:29.750Z,101130.17
2018-10-06T07:19:59.335Z,101132.98
2018-10-06T07:22:29.326Z,101129.76
2018-10-06T07:24:58.270Z,101130.04
2018-10-06T07:27:27.130Z,101123.77
2018-10-06T07:29:56.072Z,101120.33
2018-10-06T07:32:25.244Z,101126.22
2018-10-06T07:34:54.371Z,101128.61
2018-10-06T07:37:24.887Z,101125.74
2018-10-06T07:39:55.114Z,101120.52
2018-10-06T07:42:26.378Z,101120.94
2018-10-06T07:44:56.962Z,101123.95
2018-10-06T07:47:27.158Z,101119.70
2018-10-06T07:49:57.377Z,101113.38
2018-10-06T07:52:27.407Z,101109.61
2018-10-06T07:54:57.430Z,101109.53
2018-10-06T07:57:27.757Z,101111.80
2018-10-06T07:59:59.541Z,101111.86
2018-10-06T08:02:30.405Z,101111.02
2018-10-06T08:05:00.511Z,101109.28
2018-10-06T08:07:31.117Z,101111.20
2018-10-06T08:10:01.496Z,101105.72
2018-10-06T08:12:32.424Z,101103.05
2018-10-06T08:15:02.692Z,101096.47
2018-10-06T08:17:33.382Z,101091.89
2018-10-06T08:20:04.151Z,101095.39
2018-10-06T08:22:34.361Z,101087.31
2018-10-06T08:25:03.326Z,101093.71
2018-10-06T08:27:32.244Z,101096.14
2018-10-06T08:30:01.104Z,101090.52
2018-10-06T08:32:29.996Z,101090.50
2018-10-06T08:34:58.893Z,101088.44
2018-10-06T08:37:27.806Z,101086.95
2018-10-06T08:39:56.634Z,101083.89
2018-10-06T08:42:25.540Z,101083.62
2018-10-06T08:44:54.413Z,101073.91
2018-10-06T08:47:24.516Z,101074.23
2018-10-06T08:49:53.472Z,101073.44
2018-10-06T08:52:22.573Z,101077.52
2018-10-06T08:54:52.009Z,101074.28
2018-10-06T08:57:20.912Z,101083.67
2018-10-06T08:59:49.813Z,101082.61
2018-10-06T09:02:18.721Z,101080.32
2018-10-06T09:04:47.554Z,101075.42
2018-10-06T09:07:16.396Z,101077.57
2018-10-06T09:09:45.327Z,101081.33
2018-10-06T09:12:14.185Z,101079.98
2018-10-06T09:14:43.085Z,101074.03
2018-10-06T09:17:11.966Z,101074.89
2018-10-06T09:19:40.877Z,101070.05
2018-10-06T09:22:09.720Z,101078.53
2018-10-06T09:24:38.680Z,101068.52
2018-10-06T09:27:08.174Z,101073.86
2018-10-06T09:29:37.145Z,101079.42
2018-10-06T09:32:06.095Z,101070.98
2018-10-06T09:34:35.198Z,101074.38
2018-10-06T09:37:04.268Z,101070.48
2018-10-06T09:39:33.168Z,101070.31
2018-10-06T09:42:02.094Z,101068.16
2018-10-06T09:44:30.930Z,101064.81
2018-10-06T09:46:59.830Z,101060.31
2018-10-06T09:49:29.023Z,101055.42
2018-10-06T09:51:58.032Z,101054.80
2018-10-06T09:54:26.998Z,101052.89
2018-10-06T09:56:56.845Z,101054.10
2018-10-06T09:59:26.303Z,101053.31
2018-10-06T10:02:01.624Z,101046.23
2018-10-06T10:04:30.559Z,101050.57
2018-10-06T10:06:59.523Z,101045.63
2018-10-06T10:09:28.861Z,101039.93
2018-10-06T10:11:57.813Z,101037.17
2018-10-06T10:14:26.803Z,101033.03
2018-10-06T10:16:55.826Z,101029.86
2018-10-06T10:19:25.129Z,101026.88
2018-10-06T10:21:54.285Z,101032.82
2018-10-06T10:24:23.194Z,101028.05
2018-10-06T10:26:52.201Z,101031.79
2018-10-06T10:29:21.224Z,101038.04
2018-10-06T10:31:50.604Z,101033.75
2018-10-06T10:34:19.605Z,101028.78
2018-10-06T10:36:48.532Z,101019.66
2018-10-06T10:39:17.385Z,101019.33
2018-10-06T10:41:46.239Z,101018.07
2018-10-06T10:44:15.231Z,101013.17
2018-10-06T10:46:44.151Z,101012.00
2018-10-06T10:49:13.425Z,101007.29
2018-10-06T10:51:42.368Z,101006.77
2018-10-06T10:54:11.216Z,100998.11
2018-10-06T10:56:40.181Z,100995.34
2018-10-06T10:59:09.082Z,100988.73
2018-10-06T11:01:37.985Z,100990.41
2018-10-06T11:04:06.891Z,100991.35
2018-10-06T11:06:35.711Z,100984.27
2018-10-06T11:09:05.888Z,100984.58
2018-10-06T11:11:34.736Z,100977.67
2018-10-06T11:14:03.907Z,100972.42
2018-10-06T11:16:32.768Z,100970.73
2018-10-06T11:19:01.747Z,100967.12
2018-10-06T11:21:30.626Z,100960.68
2018-10-06T11:23:59.516Z,100960.92
2018-10-06T11:26:28.474Z,100959.37
2018-10-06T11:28:57.335Z,100945.05
2018-10-06T11:31:26.247Z,100954.02
2018-10-06T11:33:55.134Z,100949.99
2018-10-06T11:36:24.226Z,100940.92
2018-10-06T11:38:53.115Z,100941.84
2018-10-06T11:41:21.917Z,100930.20
2018-10-06T11:43:50.845Z,100939.52
2018-10-06T11:46:19.716Z,100934.45
2018-10-06T11:48:48.594Z,100923.00
2018-10-06T11:51:17.639Z,100919.03
2018-10-06T11:53:46.541Z,100920.80
2018-10-06T11:56:15.773Z,100915.48
2018-10-06T11:58:45.534Z,100913.72
2018-10-06T12:01:15.125Z,100901.63
2018-10-06T12:03:44.109Z,100903.49
2018-10-06T12:06:12.981Z,100904.14
2018-10-06T12:08:41.983Z,100888.80
2018-10-06T12:11:10.823Z,100888.95
2018-10-06T12:13:39.708Z,100881.58
2018-10-06T12:16:08.631Z,100875.19
2018-10-06T12:18:37.448Z,100871.30
2018-10-06T12:21:06.367Z,100867.36
2018-10-06T12:23:35.277Z,100858.60
2018-10-06T12:26:04.229Z,100856.56
2018-10-06T12:28:33.111Z,100852.77
2018-10-06T12:31:02.659Z,100848.19
2018-10-06T12:33:31.508Z,100847.03
2018-10-06T12:36:00.585Z,100837.00
2018-10-06T12:38:29.372Z,100839.02
2018-10-06T12:40:58.415Z,100830.88
2018-10-06T12:43:27.272Z,100830.59
2018-10-06T12:45:56.213Z,100830.06
2018-10-06T12:48:25.047Z,100829.16
2018-10-06T12:50:53.933Z,100827.95
2018-10-06T12:53:23.148Z,100832.63
2018-10-06T12:55:51.987Z,100835.23
2018-10-06T12:58:20.818Z,100832.27
2018-10-06T13:00:49.722Z,100831.55
2018-10-06T13:03:18.576Z,100828.36
2018-10-06T13:05:47.502Z,100829.50
2018-10-06T13:08:16.348Z,100824.84
2018-10-06T13:10:45.166Z,100824.11
2018-10-06T13:13:14.090Z,100826.89
2018-10-06T13:15:43.299Z,100817.78
2018-10-06T13:18:12.481Z,100815.34
2018-10-06T13:20:41.328Z,100819.73
2018-10-06T13:23:10.314Z,100815.14
2018-10-06T13:25:39.127Z,100816.68
2018-10-06T13:28:08.238Z,100820.08
2018-10-06T13:30:37.099Z,100818.20
2018-10-06T13:33:06.056Z,100817.52
2018-10-06T13:35:34.891Z,100809.89
2018-10-06T13:38:03.785Z,100804.15
2018-10-06T13:40:32.619Z,100807.40
2018-10-06T13:43:01.549Z,100804.12
2018-10-06T13:45:36.414Z,100807.92
2018-10-06T13:48:05.616Z,100804.41
2018-10-06T13:50:34.423Z,100805.02
2018-10-06T13:53:03.385Z,100799.46
2018-10-06T13:55:32.200Z,100798.52
2018-10-06T13:58:01.165Z,100794.34
2018-10-06T14:00:30.035Z,100793.31
2018-10-06T14:02:59.277Z,100790.31
2018-10-06T14:05:28.235Z,100780.76
2018-10-06T14:07:57.110Z,100781.91
2018-10-06T14:10:25.985Z,100786.31
2018-10-06T14:12:54.938Z,100783.90
2018-10-06T14:15:23.798Z,100785.36
2018-10-06T14:17:52.789Z,100784.53
2018-10-06T14:20:21.861Z,100784.65
2018-10-06T14:22:50.655Z,100787.47
2018-10-06T14:25:19.704Z,100784.77
2018-10-06T14:27:50.105Z,100788.14
2018-10-06T14:30:19.120Z,100777.36
2018-10-06T14:32:48.256Z,100781.78
2018-10-06T14:35:17.769Z,100775.05
2018-10-06T14:37:46.782Z,100775.45
2018-10-06T14:40:15.784Z,100766.53
2018-10-06T14:42:44.800Z,100768.71
2018-10-06T14:45:13.628Z,100763.25
2018-10-06T14:47:42.985Z,100768.11
2018-10-06T14:50:12.017Z,100762.52
2018-10-06T14:52:40.891Z,100754.47
2018-10-06T14:55:10.050Z,100755.50
2018-10-06T14:57:39.183Z,100752.30
2018-10-06T15:00:08.955Z,100753.38
2018-10-06T15:02:38.089Z,100747.23
2018-10-06T15:05:06.999Z,100751.75
2018-10-06T15:07:36.285Z,100745.01
2018-10-06T15:10:05.604Z,100736.00
2018-10-06T15:12:34.488Z,100739.38
2018-10-06T15:15:03.475Z,100739.59
2018-10-06T15:17:32.341Z,100740.41
2018-10-06T15:20:01.356Z,100737.88
2018-10-06T15:22:30.367Z,100732.52
2018-10-06T15:25:00.038Z,100732.61
2018-10-06T15:27:28.910Z,100730.00
2018-10-06T15:29:57.739Z,100727.38
2018-10-06T15:32:26.659Z,100721.73
2018-10-06T15:34:55.514Z,100714.31
2018-10-06T15:37:24.480Z,100711.45
2018-10-06T15:39:53.460Z,100713.59
2018-10-06T15:42:22.329Z,100710.55
2018-10-06T15:44:51.287Z,100705.22
2018-10-06T15:47:20.179Z,100706.14
2018-10-06T15:49:49.001Z,100709.44
2018-10-06T15:52:17.906Z,100711.31
2018-10-06T15:54:46.703Z,100704.52
2018-10-06T15:57:15.641Z,100711.08
2018-10-06T15:59:44.464Z,100708.74
2018-10-06T16:02:13.505Z,100707.95
2018-10-06T16:04:42.388Z,100710.29
2018-10-06T16:07:11.198Z,100708.92
2018-10-06T16:09:40.071Z,100708.11
2018-10-06T16:12:08.921Z,100704.81
2018-10-06T16:14:37.847Z,100709.78
2018-10-06T16:17:06.789Z,100708.40
2018-10-06T16:19:35.671Z,100710.45
2018-10-06T16:22:04.657Z,100718.66
2018-10-06T16:24:33.504Z,100712.44
2018-10-06T16:27:02.304Z,100717.16
2018-10-06T16:29:31.166Z,100712.73
2018-10-06T16:31:59.932Z,100712.08
2018-10-06T16:34:28.913Z,100717.55
2018-10-06T16:36:57.742Z,100717.97
2018-10-06T16:39:26.569Z,100714.67
2018-10-06T16:41:55.401Z,100711.54
2018-10-06T16:44:24.271Z,100710.98
2018-10-06T16:46:53.224Z,100712.78
2018-10-06T16:49:22.406Z,100707.89
2018-10-06T16:51:51.362Z,100725.03
2018-10-06T16:54:20.241Z,100722.20
2018-10-06T16:56:49.043Z,100724.30
2018-10-06T16:59:17.884Z,100725.37
2018-10-06T17:01:46.805Z,100727.22
2018-10-06T17:04:15.638Z,100722.52
2018-10-06T17:06:45.305Z,100723.02
2018-10-06T17:09:14.176Z,100732.10
2018-10-06T17:11:43.237Z,100732.72
2018-10-06T17:14:12.140Z,100725.53
2018-10-06T17:16:40.995Z,100724.80
2018-10-06T17:19:09.847Z,100732.50
2018-10-06T17:21:38.980Z,100729.95
2018-10-06T17:24:08.005Z,100730.03
2018-10-06T17:26:36.884Z,100731.95
2018-10-06T17:29:05.751Z,100731.06
2018-10-06T17:31:34.604Z,100725.67
2018-10-06T17:34:03.514Z,100735.19
2018-10-06T17:36:32.363Z,100733.66
2018-10-06T17:39:01.240Z,100732.29
2018-10-06T17:41:30.120Z,100727.38
2018-10-06T17:44:00.015Z,100733.48
2018-10-06T17:46:29.041Z,100732.70
2018-10-06T17:48:57.856Z,100733.33
2018-10-06T17:51:26.689Z,100731.56
2018-10-06T17:53:55.484Z,100737.24
2018-10-06T17:56:24.302Z,100735.27
2018-10-06T17:58:53.260Z,100739.02
2018-10-06T18:01:22.106Z,100741.95
2018-10-06T18:03:50.986Z,100744.71
2018-10-06T18:06:19.813Z,100740.80
2018-10-06T18:08:48.764Z,100741.98
2018-10-06T18:11:17.946Z,100747.89
2018-10-06T18:13:47.100Z,100750.06
2018-10-06T18:16:16.226Z,100747.72
2018-10-06T18:18:45.286Z,100755.37
2018-10-06T18:21:14.226Z,100750.84
2018-10-06T18:23:43.727Z,100752.60
2018-10-06T18:26:12.863Z,100751.22
2018-10-06T18:28:42.649Z,100758.49
2018-10-06T18:31:11.462Z,100759.10
2018-10-06T18:33:40.818Z,100769.14
2018-10-06T18:36:10.064Z,100772.87
2018-10-06T18:38:39.192Z,100769.14
2018-10-06T18:41:08.669Z,100765.23
2018-10-06T18:43:37.564Z,100770.52
2018-10-06T18:46:06.423Z,100773.09
2018-10-06T18:48:35.439Z,100776.62
2018-10-06T18:51:04.270Z,100771.32
2018-10-06T18:53:33.555Z,100776.04
2018-10-06T18:56:02.392Z,100780.58
2018-10-06T18:58:31.479Z,100778.22
2018-10-06T19:01:00.447Z,100781.74
2018-10-06T19:03:29.756Z,100780.37
2018-10-06T19:05:58.563Z,100775.27
2018-10-06T19:08:27.388Z,100780.38
2018-10-06T19:10:56.874Z,100783.70
2018-10-06T19:13:25.885Z,100783.13
2018-10-06T19:15:54.758Z,100780.95
2018-10-06T19:18:23.776Z,100792.36
2018-10-06T19:20:52.640Z,100787.06
2018-10-06T19:23:21.550Z,100793.34
2018-10-06T19:25:51.091Z,100796.30
2018-10-06T19:28:19.847Z,100801.99
2018-10-06T19:30:48.993Z,100807.50
2018-10-06T19:33:18.102Z,100807.89
2018-10-06T19:35:46.944Z,100813.57
2018-10-06T19:38:16.011Z,100820.89
2018-10-06T19:40:44.893Z,100821.66
2018-10-06T19:43:14.513Z,100821.28
2018-10-06T19:45:43.448Z,100823.64
2018-10-06T19:48:12.252Z,100822.84
2018-10-06T19:50:41.461Z,100823.82
2018-10-06T19:53:10.310Z,100818.90
2018-10-06T19:55:39.354Z,100826.58
2018-10-06T19:58:08.522Z,100835.39
2018-10-06T20:00:37.364Z,100837.58
2018-10-06T20:03:06.466Z,100841.89
2018-10-06T20:05:35.600Z,100842.87
2018-10-06T20:08:04.548Z,100842.27
2018-10-06T20:10:33.357Z,100843.48
2018-10-06T20:13:02.561Z,100846.23
2018-10-06T20:15:31.863Z,100847.39
2018-10-06T20:18:00.685Z,100854.89
2018-10-06T20:20:29.513Z,100853.31
2018-10-06T20:22:58.351Z,100856.67
2018-10-06T20:25:27.175Z,100858.05
2018-10-06T20:27:56.191Z,100866.09
2018-10-06T20:30:25.641Z,100867.47
2018-10-06T20:33:01.423Z,100863.92
2018-10-06T20:35:30.229Z,100865.91
2018-10-06T20:37:59.221Z,100876.10
2018-10-06T20:40:28.030Z,100872.15
2018-10-06T20:42:56.930Z,100871.92
2018-10-06T20:45:31.688Z,100873.69
2018-10-06T20:48:00.657Z,100876.81
2018-10-06T20:50:29.493Z,100879.70
2018-10-06T20:52:58.568Z,100882.12
2018-10-06T20:55:27.539Z,100883.26
2018-10-06T20:57:56.428Z,100880.38
2018-10-06T21:00:25.403Z,100878.42
2018-10-06T21:02:54.289Z,100884.52
2018-10-06T21:05:23.109Z,100882.51
2018-10-06T21:07:52.372Z,100890.63
2018-10-06T21:10:21.218Z,100901.46
2018-10-06T21:12:50.111Z,100903.20
2018-10-06T21:15:19.101Z,100896.84
2018-10-06T21:17:48.023Z,100891.06
2018-10-06T21:20:16.879Z,100884.98
2018-10-06T21:22:45.671Z,100887.60
2018-10-06T21:25:14.607Z,100895.38
2018-10-06T21:27:43.460Z,100895.33
2018-10-06T21:30:12.319Z,100902.14
2018-10-06T21:32:41.290Z,100890.41
2018-10-06T21:35:10.247Z,100892.53
2018-10-06T21:37:39.315Z,100895.17
2018-10-06T21:40:08.247Z,100893.74
2018-10-06T21:42:37.053Z,100896.42
2018-10-06T21:45:06.389Z,100898.31
2018-10-06T21:47:35.199Z,100908.21
2018-10-06T21:50:04.219Z,100917.02
2018-10-06T21:52:33.015Z,100913.83
2018-10-06T21:55:01.900Z,100917.78
2018-10-06T21:57:30.752Z,100914.15
2018-10-06T21:59:59.662Z,100916.83
2018-10-06T22:02:28.539Z,100920.14
2018-10-06T22:04:57.368Z,100923.62
2018-10-06T22:07:26.205Z,100927.23
2018-10-06T22:09:55.059Z,100939.23
2018-10-06T22:12:23.972Z,100937.47
2018-10-06T22:14:52.916Z,100941.47
2018-10-06T22:17:21.773Z,100946.60
2018-10-06T22:19:50.703Z,100942.73
2018-10-06T22:22:19.565Z,100943.11
2018-10-06T22:24:48.752Z,100945.72
2018-10-06T22:27:17.752Z,100941.27
2018-10-06T22:29:46.627Z,100939.16
2018-10-06T22:32:15.485Z,100944.95
2018-10-06T22:34:44.329Z,100942.53
2018-10-06T22:37:13.157Z,100949.70
2018-10-06T22:39:42.133Z,100958.91
2018-10-06T22:42:10.957Z,100973.79
2018-10-06T22:44:39.837Z,100982.64
2018-10-06T22:47:08.980Z,100984.72
2018-10-06T22:49:37.844Z,100987.98
2018-10-06T22:52:06.997Z,100991.27
2018-10-06T22:54:35.837Z,100986.22
2018-10-06T22:57:04.739Z,100991.91
2018-10-06T22:59:33.602Z,100982.99
2018-10-06T23:02:02.445Z,100974.59
2018-10-06T23:04:31.668Z,100972.23
2018-10-06T23:07:00.751Z,100991.83
2018-10-06T23:09:29.610Z,100996.07
2018-10-06T23:11:58.443Z,101003.03
2018-10-06T23:14:27.347Z,101017.03
2018-10-06T23:16:56.315Z,101028.70
2018-10-06T23:19:25.207Z,101026.60
2018-10-06T23:21:54.060Z,101043.48
2018-10-06T23:24:22.958Z,101041.36
2018-10-06T23:26:51.814Z,101065.30
2018-10-06T23:29:20.791Z,101074.56
2018-10-06T23:31:49.636Z,101086.11
2018-10-06T23:34:18.488Z,101098.35
2018-10-06T23:36:47.284Z,101090.55
2018-10-06T23:39:16.129Z,101093.19
2018-10-06T23:41:45.007Z,101107.52
2018-10-06T23:44:13.851Z,101105.16
2018-10-06T23:46:42.673Z,101094.98
2018-10-06T23:49:11.575Z,101103.03
2018-10-06T23:51:40.419Z,101097.44
2018-10-06T23:54:09.737Z,101103.52
2018-10-06T23:56:38.603Z,101101.47
2018-10-06T23:59:07.668Z,101106.64
